Time;durP1;ratioP1;P1;durP2;ratioP2;P2;SDS_P1;SDS_P2;PMS_P1;PMS_P2;Temp;Humidity;BMP_temperature;BMP_pressure;BME280_temperature;BME280_humidity;BME280_pressure;Samples;Min_cycle;Max_cycle;Signal;HPM_P1;HPM_P2
2023/03/06 00:01:05;;;;;;;19.83;15.93;;;5.70;99.90;;;;;;4997979;28;20872;-73
2023/03/06 00:03:32;;;;;;;20.40;13.87;;;5.60;99.90;;;;;;5001556;28;20420;-74
2023/03/06 00:05:58;;;;;;;20.93;15.27;;;5.60;99.90;;;;;;4984186;28;20473;-75
2023/03/06 00:08:25;;;;;;;19.00;13.83;;;5.50;99.90;;;;;;5000359;28;20426;-76
2023/03/06 00:10:51;;;;;;;21.63;14.23;;;5.60;99.90;;;;;;5001617;28;20473;-76
2023/03/06 00:13:18;;;;;;;29.17;18.53;;;5.60;99.90;;;;;;4990221;28;20408;-75
2023/03/06 00:15:44;;;;;;;20.37;14.53;;;5.50;99.90;;;;;;5003323;28;20613;-74
2023/03/06 00:18:10;;;;;;;25.27;17.57;;;5.60;99.90;;;;;;4979855;28;20424;-76
2023/03/06 00:20:38;;;;;;;24.43;16.60;;;5.60;99.90;;;;;;5004270;28;20411;-75
2023/03/06 00:23:04;;;;;;;20.13;16.33;;;5.60;99.90;;;;;;4999115;28;20723;-75
2023/03/06 00:25:30;;;;;;;24.93;17.50;;;5.50;99.90;;;;;;4980027;28;20477;-74
2023/03/06 00:27:55;;;;;;;19.30;14.93;;;5.50;99.90;;;;;;4967108;28;20236;-76
2023/03/06 00:30:22;;;;;;;18.57;14.23;;;5.50;99.90;;;;;;4985188;28;20788;-75
2023/03/06 00:32:49;;;;;;;21.40;16.00;;;5.50;99.90;;;;;;4991517;28;20188;-76
2023/03/06 00:35:15;;;;;;;23.40;15.60;;;5.50;99.90;;;;;;4977893;28;20803;-75
2023/03/06 00:37:41;;;;;;;20.40;15.27;;;5.50;99.90;;;;;;4976788;28;20416;-75
2023/03/06 00:40:18;;;;;;;21.50;15.30;;;5.50;99.90;;;;;;4985377;28;20412;-75
2023/03/06 00:42:45;;;;;;;23.93;14.50;;;5.40;99.90;;;;;;4970909;28;20442;-74
2023/03/06 00:45:11;;;;;;;17.93;13.27;;;5.50;99.90;;;;;;4996196;28;20416;-76
2023/03/06 00:47:37;;;;;;;19.53;14.67;;;5.60;99.90;;;;;;5002365;28;20454;-74
2023/03/06 00:50:03;;;;;;;21.00;15.40;;;5.50;99.90;;;;;;4995406;28;20466;-76
2023/03/06 00:52:28;;;;;;;18.93;13.70;;;5.50;99.90;;;;;;4995068;28;20164;-74
2023/03/06 00:54:54;;;;;;;18.07;14.30;;;5.60;99.90;;;;;;4988315;28;20407;-75
2023/03/06 00:57:20;;;;;;;19.80;13.33;;;5.60;99.90;;;;;;4996090;28;20247;-74
2023/03/06 00:59:45;;;;;;;21.80;14.83;;;5.70;99.90;;;;;;4991281;28;20215;-74
2023/03/06 01:02:11;;;;;;;20.90;15.83;;;5.70;99.90;;;;;;4990485;28;20181;-77
2023/03/06 01:04:37;;;;;;;20.30;14.40;;;5.80;99.90;;;;;;4992297;28;20605;-74
2023/03/06 01:07:02;;;;;;;20.77;13.73;;;5.80;99.90;;;;;;4996864;28;20200;-74
2023/03/06 01:09:28;;;;;;;20.27;15.20;;;5.80;99.90;;;;;;4992125;28;20176;-74
2023/03/06 01:11:54;;;;;;;21.83;14.43;;;6.00;99.90;;;;;;4983258;28;20681;-75
2023/03/06 01:14:20;;;;;;;19.70;14.70;;;6.10;99.90;;;;;;4985108;28;20231;-75
2023/03/06 01:16:46;;;;;;;20.47;14.37;;;6.00;99.90;;;;;;4995921;28;20434;-75
2023/03/06 01:19:12;;;;;;;17.90;14.57;;;6.00;99.90;;;;;;4979038;28;20651;-75
2023/03/06 01:21:37;;;;;;;19.30;14.60;;;6.00;99.90;;;;;;4992880;28;20429;-76
2023/03/06 01:24:03;;;;;;;16.33;13.87;;;6.10;99.90;;;;;;4985182;28;20186;-73
2023/03/06 01:26:29;;;;;;;26.07;15.07;;;6.10;99.90;;;;;;4975977;28;20273;-73
2023/03/06 01:28:56;;;;;;;16.90;12.67;;;6.10;99.90;;;;;;4978014;28;20275;-76
2023/03/06 01:31:22;;;;;;;22.23;14.60;;;6.10;99.90;;;;;;4970339;28;20997;-74
2023/03/06 01:33:48;;;;;;;21.67;15.67;;;6.20;99.90;;;;;;5004421;28;20845;-74
2023/03/06 01:36:13;;;;;;;19.50;14.57;;;6.10;99.90;;;;;;4996488;28;20456;-76
2023/03/06 01:38:39;;;;;;;21.80;14.80;;;5.90;99.90;;;;;;5001229;28;20184;-76
2023/03/06 01:41:05;;;;;;;21.50;15.40;;;5.90;99.90;;;;;;5004284;28;20524;-75
2023/03/06 01:43:35;;;;;;;20.87;15.73;;;5.80;99.90;;;;;;4982550;28;20315;-76
2023/03/06 01:46:16;;;;;;;19.13;15.13;;;5.80;99.90;;;;;;4989695;28;20465;-75
2023/03/06 01:48:42;;;;;;;18.43;14.13;;;5.70;99.90;;;;;;4994560;28;20541;-76
2023/03/06 01:51:09;;;;;;;22.07;14.13;;;5.80;99.90;;;;;;4998392;28;20420;-76
2023/03/06 01:53:35;;;;;;;23.33;15.40;;;5.80;99.90;;;;;;4978685;28;20417;-76
2023/03/06 01:56:00;;;;;;;20.33;13.93;;;5.80;99.90;;;;;;4977072;28;20448;-76
2023/03/06 01:58:26;;;;;;;19.97;14.13;;;5.80;99.90;;;;;;4996431;28;20439;-76
2023/03/06 02:00:52;;;;;;;23.70;15.40;;;5.70;99.90;;;;;;4999275;28;20192;-74
2023/03/06 02:03:21;;;;;;;18.47;14.33;;;5.50;99.90;;;;;;4967482;28;20515;-73
2023/03/06 02:05:47;;;;;;;17.33;13.70;;;5.30;99.90;;;;;;5001893;28;20574;-76
2023/03/06 02:08:17;;;;;;;21.73;14.80;;;5.50;99.90;;;;;;4970917;28;20420;-73
2023/03/06 02:10:54;;;;;;;26.40;13.77;;;5.60;99.90;;;;;;4977476;28;20180;-73
2023/03/06 02:13:20;;;;;;;21.47;14.33;;;5.70;99.90;;;;;;4970502;28;20415;-74
2023/03/06 02:15:46;;;;;;;21.40;14.97;;;5.70;99.90;;;;;;4984846;28;20497;-75
2023/03/06 02:18:11;;;;;;;18.67;14.70;;;5.70;99.90;;;;;;5000274;28;20181;-72
2023/03/06 02:20:44;;;;;;;21.63;14.33;;;5.60;99.90;;;;;;4993272;28;20196;-76
2023/03/06 02:23:30;;;;;;;22.37;14.50;;;5.60;99.90;;;;;;4988112;28;20181;-75
2023/03/06 02:25:58;;;;;;;20.67;15.40;;;5.60;99.90;;;;;;5001416;28;20485;-75
2023/03/06 02:28:23;;;;;;;17.27;13.87;;;5.50;99.90;;;;;;4978476;28;20938;-70
2023/03/06 02:30:51;;;;;;;18.60;13.60;;;5.60;99.90;;;;;;5007323;28;20415;-71
2023/03/06 02:33:21;;;;;;;23.93;14.43;;;5.50;99.90;;;;;;4994866;28;20200;-72
2023/03/06 02:35:54;;;;;;;17.67;13.13;;;5.60;99.90;;;;;;5003476;28;20823;-73
2023/03/06 02:38:23;;;;;;;20.87;14.30;;;5.60;99.90;;;;;;5010234;28;20498;-70
2023/03/06 02:40:51;;;;;;;20.87;13.00;;;5.50;99.90;;;;;;4994177;28;20407;-70
2023/03/06 02:43:27;;;;;;;19.03;13.77;;;5.40;99.90;;;;;;5008357;28;20417;-72
2023/03/06 02:45:53;;;;;;;19.70;13.63;;;5.50;99.90;;;;;;5008306;28;20469;-72
2023/03/06 02:48:19;;;;;;;19.50;14.13;;;5.50;99.90;;;;;;5008398;28;20422;-72
2023/03/06 02:50:46;;;;;;;16.57;13.63;;;5.50;99.90;;;;;;5003232;28;20188;-69
2023/03/06 02:53:14;;;;;;;18.83;13.90;;;5.50;99.90;;;;;;4989512;28;20423;-71
2023/03/06 02:55:40;;;;;;;15.00;12.63;;;5.50;99.90;;;;;;4997895;28;20451;-72
2023/03/06 02:58:06;;;;;;;20.00;13.80;;;5.40;99.90;;;;;;4994568;28;20420;-70
2023/03/06 03:00:32;;;;;;;20.10;14.27;;;5.30;99.90;;;;;;4987261;28;20295;-72
2023/03/06 03:02:59;;;;;;;20.40;14.17;;;5.30;99.90;;;;;;4990631;28;20188;-72
2023/03/06 03:05:24;;;;;;;21.70;14.33;;;5.40;99.90;;;;;;5002838;28;20501;-71
2023/03/06 03:07:50;;;;;;;20.47;13.60;;;5.50;99.90;;;;;;4992899;28;20463;-72
2023/03/06 03:10:16;;;;;;;15.83;12.73;;;5.40;99.90;;;;;;4979516;28;20185;-73
2023/03/06 03:12:41;;;;;;;18.20;14.17;;;5.50;99.90;;;;;;4995493;28;20285;-72
2023/03/06 03:15:08;;;;;;;20.23;14.03;;;5.30;99.90;;;;;;5003740;28;20501;-71
2023/03/06 03:17:38;;;;;;;21.63;14.47;;;5.40;99.90;;;;;;4996611;28;20192;-73
2023/03/06 03:20:09;;;;;;;19.73;13.47;;;5.30;99.90;;;;;;4995617;28;20420;-73
2023/03/06 03:22:35;;;;;;;17.20;14.17;;;5.30;99.90;;;;;;4970427;28;20435;-71
2023/03/06 03:25:00;;;;;;;16.57;12.33;;;5.30;99.90;;;;;;5005639;28;20427;-72
2023/03/06 03:27:26;;;;;;;18.47;13.80;;;5.30;99.90;;;;;;4988819;28;20586;-70
2023/03/06 03:29:51;;;;;;;19.07;13.60;;;5.30;99.90;;;;;;4987904;28;20188;-73
2023/03/06 03:32:17;;;;;;;17.10;13.67;;;5.20;99.90;;;;;;5000815;28;20180;-69
2023/03/06 03:34:43;;;;;;;19.13;12.07;;;5.30;99.90;;;;;;5001316;28;20186;-73
2023/03/06 03:37:09;;;;;;;17.53;12.23;;;5.30;99.90;;;;;;4992244;28;20208;-71
2023/03/06 03:39:34;;;;;;;17.20;12.73;;;5.30;99.90;;;;;;4986399;28;20270;-72
2023/03/06 03:42:00;;;;;;;19.40;13.13;;;5.20;99.90;;;;;;4999365;28;20195;-72
2023/03/06 03:44:25;;;;;;;16.53;12.27;;;5.10;99.90;;;;;;4986806;28;20185;-73
2023/03/06 03:46:51;;;;;;;16.30;12.97;;;5.10;99.90;;;;;;4993417;28;20590;-72
2023/03/06 03:49:17;;;;;;;16.40;12.57;;;5.00;99.90;;;;;;4989642;28;20639;-73
2023/03/06 03:51:43;;;;;;;19.87;13.13;;;5.00;99.90;;;;;;4972380;28;20608;-72
2023/03/06 03:54:08;;;;;;;18.67;12.03;;;5.20;99.90;;;;;;4989000;28;20263;-73
2023/03/06 03:56:34;;;;;;;16.60;12.47;;;5.10;99.90;;;;;;4997043;28;20963;-73
2023/03/06 03:58:59;;;;;;;15.67;12.10;;;5.10;99.90;;;;;;4976013;28;20191;-73
2023/03/06 04:01:25;;;;;;;16.20;11.70;;;5.10;99.90;;;;;;4980071;28;20777;-73
2023/03/06 04:03:51;;;;;;;16.00;13.00;;;5.10;99.90;;;;;;4969179;28;20480;-69
2023/03/06 04:06:17;;;;;;;15.77;11.83;;;5.10;99.90;;;;;;4969887;28;20296;-72
2023/03/06 04:08:42;;;;;;;12.10;9.70;;;5.20;99.90;;;;;;4988318;28;20295;-71
2023/03/06 04:11:09;;;;;;;14.80;11.87;;;5.30;99.90;;;;;;4987170;28;20510;-71
2023/03/06 04:13:35;;;;;;;15.13;13.20;;;5.40;99.90;;;;;;4996043;28;20180;-72
2023/03/06 04:16:01;;;;;;;13.57;11.73;;;5.40;99.90;;;;;;4976472;28;20973;-73
2023/03/06 04:18:27;;;;;;;14.67;11.90;;;5.50;99.90;;;;;;5002120;28;20253;-72
2023/03/06 04:20:53;;;;;;;15.60;12.43;;;5.50;99.90;;;;;;4970612;28;20189;-71
2023/03/06 04:23:19;;;;;;;15.63;11.50;;;5.60;99.90;;;;;;4969020;28;20831;-73
2023/03/06 04:25:45;;;;;;;14.30;10.73;;;5.50;99.90;;;;;;4995337;28;20219;-72
2023/03/06 04:28:11;;;;;;;15.20;11.00;;;5.50;99.90;;;;;;5000117;28;20426;-72
2023/03/06 04:30:37;;;;;;;14.30;10.60;;;5.40;99.90;;;;;;4977837;28;20427;-72
2023/03/06 04:33:04;;;;;;;13.60;10.30;;;5.30;99.90;;;;;;5004181;28;20415;-73
2023/03/06 04:35:30;;;;;;;15.40;12.33;;;5.20;99.90;;;;;;4971268;28;20204;-71
2023/03/06 04:37:56;;;;;;;11.93;10.53;;;5.30;99.90;;;;;;4968137;28;20411;-73
2023/03/06 04:40:28;;;;;;;15.00;11.33;;;5.30;99.90;;;;;;4999175;28;20180;-73
2023/03/06 04:42:55;;;;;;;16.80;12.07;;;5.20;99.90;;;;;;5000031;28;20431;-73
2023/03/06 04:45:21;;;;;;;15.73;12.00;;;5.30;99.90;;;;;;4979207;28;20435;-73
2023/03/06 04:47:46;;;;;;;15.70;11.43;;;5.20;99.90;;;;;;4987771;28;20551;-73
2023/03/06 04:50:12;;;;;;;13.27;11.13;;;5.20;99.90;;;;;;4988162;28;20212;-73
2023/03/06 04:52:41;;;;;;;15.50;11.83;;;5.20;99.90;;;;;;4985171;28;20630;-71
2023/03/06 04:55:08;;;;;;;13.70;11.27;;;5.20;99.90;;;;;;4976893;28;20197;-74
2023/03/06 04:57:38;;;;;;;12.97;10.73;;;5.30;99.90;;;;;;5005270;28;20778;-73
2023/03/06 05:00:08;;;;;;;15.40;11.70;;;5.30;99.90;;;;;;4992880;28;20412;-72
2023/03/06 05:02:34;;;;;;;13.80;11.40;;;5.30;99.90;;;;;;4988953;28;20503;-70
2023/03/06 05:04:59;;;;;;;13.10;10.73;;;5.30;99.90;;;;;;4982147;28;21005;-72
2023/03/06 05:07:25;;;;;;;14.10;11.93;;;5.30;99.90;;;;;;5003760;28;20254;-72
2023/03/06 05:09:51;;;;;;;13.13;11.13;;;5.40;99.90;;;;;;4986392;28;20668;-70
2023/03/06 05:12:16;;;;;;;15.13;10.77;;;5.40;99.90;;;;;;4995326;28;20306;-72
2023/03/06 05:14:43;;;;;;;13.23;10.53;;;5.40;99.90;;;;;;4984678;28;20184;-71
2023/03/06 05:17:08;;;;;;;13.60;10.13;;;5.50;99.90;;;;;;4984614;28;20894;-72
2023/03/06 05:19:34;;;;;;;11.87;10.50;;;5.50;99.90;;;;;;4969376;28;20459;-72
2023/03/06 05:21:59;;;;;;;13.03;11.20;;;5.40;99.90;;;;;;4969038;28;20187;-71
2023/03/06 05:24:25;;;;;;;14.37;11.30;;;5.50;99.90;;;;;;4981240;28;20188;-72
2023/03/06 05:26:51;;;;;;;11.77;10.37;;;5.40;99.90;;;;;;4984597;28;20223;-71
2023/03/06 05:29:16;;;;;;;17.33;11.90;;;5.50;99.90;;;;;;5004287;28;20250;-74
2023/03/06 05:31:42;;;;;;;14.13;10.70;;;5.50;99.90;;;;;;5004043;28;20176;-72
2023/03/06 05:34:11;;;;;;;13.87;9.97;;;5.50;99.90;;;;;;4998607;28;20172;-72
2023/03/06 05:36:37;;;;;;;13.67;9.50;;;5.50;99.90;;;;;;4991121;28;20232;-73
2023/03/06 05:39:03;;;;;;;14.17;11.13;;;5.50;99.90;;;;;;4999173;28;20422;-71
2023/03/06 05:41:28;;;;;;;13.03;10.27;;;5.50;99.90;;;;;;4996786;28;20180;-72
2023/03/06 05:43:55;;;;;;;14.40;10.30;;;5.50;99.90;;;;;;4970787;28;20177;-72
2023/03/06 05:46:21;;;;;;;16.90;11.77;;;5.50;99.90;;;;;;4987373;28;20204;-70
2023/03/06 05:48:46;;;;;;;11.30;9.70;;;5.50;99.90;;;;;;4988690;28;20465;-72
2023/03/06 05:51:12;;;;;;;16.20;11.90;;;5.50;99.90;;;;;;4990812;28;20251;-70
2023/03/06 05:53:38;;;;;;;12.57;10.40;;;5.50;99.90;;;;;;4970765;28;20624;-72
2023/03/06 05:56:07;;;;;;;15.97;10.87;;;5.40;99.90;;;;;;5001054;28;20223;-70
2023/03/06 05:58:33;;;;;;;13.67;10.90;;;5.40;99.90;;;;;;4997782;28;20663;-72
2023/03/06 06:00:59;;;;;;;12.90;9.77;;;5.40;99.90;;;;;;4988117;28;20420;-72
2023/03/06 06:03:25;;;;;;;13.33;10.07;;;5.40;99.90;;;;;;4973076;28;20799;-71
2023/03/06 06:05:51;;;;;;;13.20;9.80;;;5.30;99.90;;;;;;4974484;28;20435;-72
2023/03/06 06:08:17;;;;;;;13.20;10.03;;;5.10;99.90;;;;;;4993440;28;20173;-72
2023/03/06 06:10:43;;;;;;;14.87;10.57;;;5.20;99.90;;;;;;4981072;28;20443;-73
2023/03/06 06:13:10;;;;;;;14.17;10.20;;;5.10;99.90;;;;;;4977839;28;20422;-73
2023/03/06 06:15:37;;;;;;;12.63;9.70;;;5.20;99.90;;;;;;4994020;28;20200;-72
2023/03/06 06:18:02;;;;;;;13.27;9.40;;;5.30;99.90;;;;;;4978920;28;20765;-73
2023/03/06 06:20:28;;;;;;;14.30;9.60;;;5.30;99.90;;;;;;4977787;28;20451;-72
2023/03/06 06:22:54;;;;;;;14.20;10.17;;;5.40;99.90;;;;;;4995305;28;20262;-73
2023/03/06 06:25:19;;;;;;;13.27;10.30;;;5.50;99.90;;;;;;4998303;28;20262;-74
2023/03/06 06:27:45;;;;;;;11.67;10.00;;;5.50;99.90;;;;;;5002872;28;20243;-73
2023/03/06 06:30:11;;;;;;;11.63;8.93;;;5.50;99.90;;;;;;4977543;28;20179;-72
2023/03/06 06:32:37;;;;;;;12.23;10.30;;;5.40;99.90;;;;;;4986626;28;20181;-72
2023/03/06 06:35:04;;;;;;;15.07;10.90;;;5.20;99.90;;;;;;5005591;28;20429;-72
2023/03/06 06:37:30;;;;;;;12.53;9.97;;;5.40;99.90;;;;;;4985317;28;20423;-71
2023/03/06 06:39:56;;;;;;;11.53;9.27;;;5.30;99.90;;;;;;4978934;28;20450;-72
2023/03/06 06:42:21;;;;;;;14.73;10.10;;;5.30;99.90;;;;;;4980073;28;20512;-73
2023/03/06 06:44:47;;;;;;;14.40;10.50;;;5.30;99.90;;;;;;4999201;28;20735;-72
2023/03/06 06:47:13;;;;;;;14.63;10.93;;;5.50;99.90;;;;;;4990629;28;20201;-72
2023/03/06 06:49:39;;;;;;;14.87;9.70;;;5.60;99.90;;;;;;4999799;28;20176;-71
2023/03/06 06:52:05;;;;;;;14.40;9.87;;;5.70;99.90;;;;;;4991949;28;20278;-71
2023/03/06 06:54:33;;;;;;;16.37;11.10;;;5.80;99.90;;;;;;4998184;28;20437;-73
2023/03/06 06:56:59;;;;;;;12.40;10.70;;;5.60;99.90;;;;;;4987477;28;20821;-72
2023/03/06 06:59:24;;;;;;;12.83;9.90;;;5.80;99.90;;;;;;4976841;28;20424;-69
2023/03/06 07:01:51;;;;;;;14.97;9.87;;;5.80;99.90;;;;;;4975749;28;20755;-73
2023/03/06 07:04:17;;;;;;;17.50;10.17;;;5.90;99.90;;;;;;4994153;28;20182;-72
2023/03/06 07:06:44;;;;;;;13.20;9.70;;;6.00;99.90;;;;;;4988012;28;20899;-70
2023/03/06 07:09:12;;;;;;;11.90;9.30;;;6.10;99.90;;;;;;5002890;28;20419;-73
2023/03/06 07:11:39;;;;;;;11.33;9.60;;;6.30;99.90;;;;;;4988870;28;20412;-72
2023/03/06 07:14:04;;;;;;;14.20;9.93;;;6.20;99.90;;;;;;5003034;28;20417;-71
2023/03/06 07:16:30;;;;;;;15.90;11.03;;;6.10;99.90;;;;;;4996978;28;21452;-73
2023/03/06 07:18:57;;;;;;;13.30;9.07;;;6.00;99.90;;;;;;5000313;28;20266;-73
2023/03/06 07:21:22;;;;;;;14.23;9.07;;;6.00;99.90;;;;;;4992439;28;20510;-72
2023/03/06 07:23:48;;;;;;;10.60;8.50;;;5.90;99.90;;;;;;4969176;28;20216;-70
2023/03/06 07:26:13;;;;;;;13.50;9.53;;;6.00;99.90;;;;;;4997470;28;20308;-72
2023/03/06 07:28:39;;;;;;;17.60;10.70;;;6.10;99.90;;;;;;4999425;28;20180;-73
2023/03/06 07:31:10;;;;;;;12.23;9.33;;;6.10;99.90;;;;;;4993842;28;20295;-75
2023/03/06 07:33:37;;;;;;;13.47;9.90;;;6.10;99.90;;;;;;4995236;28;20199;-72
2023/03/06 07:36:06;;;;;;;13.80;9.23;;;6.00;99.90;;;;;;4998938;28;20457;-74
2023/03/06 07:38:32;;;;;;;14.97;10.37;;;6.20;99.90;;;;;;4997324;28;20460;-74
2023/03/06 07:40:57;;;;;;;12.70;9.20;;;6.40;99.90;;;;;;4980329;28;20456;-73
2023/03/06 07:43:23;;;;;;;13.60;9.13;;;6.30;99.90;;;;;;4995413;28;20184;-73
2023/03/06 07:45:56;;;;;;;13.17;9.23;;;6.20;99.90;;;;;;4995974;28;20200;-73
2023/03/06 07:48:21;;;;;;;12.47;9.37;;;6.40;99.90;;;;;;4990419;28;20171;-74
2023/03/06 07:50:58;;;;;;;12.20;9.90;;;6.40;99.90;;;;;;4988443;28;20416;-72
2023/03/06 07:53:24;;;;;;;13.07;9.27;;;6.00;99.90;;;;;;4987647;28;20534;-72
2023/03/06 07:55:50;;;;;;;12.80;10.23;;;6.10;99.90;;;;;;4984404;28;20450;-74
2023/03/06 07:58:16;;;;;;;14.67;9.93;;;6.20;99.90;;;;;;5002111;28;20536;-75
2023/03/06 08:00:41;;;;;;;11.47;9.20;;;6.00;99.90;;;;;;4997304;28;20448;-75
2023/03/06 08:03:09;;;;;;;11.90;10.63;;;5.90;99.90;;;;;;5002017;28;20180;-72
2023/03/06 08:05:35;;;;;;;12.73;9.00;;;6.00;99.90;;;;;;4995880;28;20677;-75
2023/03/06 08:08:00;;;;;;;13.30;9.80;;;6.00;99.90;;;;;;4997972;28;20492;-73
2023/03/06 08:10:26;;;;;;;11.07;9.00;;;6.00;99.90;;;;;;4996564;28;20218;-75
2023/03/06 08:12:51;;;;;;;12.70;10.00;;;6.10;99.90;;;;;;4995790;28;21250;-75
2023/03/06 08:15:17;;;;;;;13.20;9.47;;;6.20;99.90;;;;;;4975112;28;20250;-73
2023/03/06 08:17:43;;;;;;;12.53;9.37;;;6.30;99.90;;;;;;4997248;28;20250;-74
2023/03/06 08:20:09;;;;;;;12.47;9.03;;;6.20;99.90;;;;;;4992593;28;20652;-73
2023/03/06 08:22:35;;;;;;;10.73;9.00;;;6.20;99.90;;;;;;4969783;28;20279;-73
2023/03/06 08:25:01;;;;;;;11.40;9.03;;;6.40;99.90;;;;;;4977942;28;20609;-72
2023/03/06 08:27:26;;;;;;;12.23;9.00;;;6.60;99.90;;;;;;4992580;28;20250;-74
2023/03/06 08:29:52;;;;;;;12.60;9.30;;;6.70;99.90;;;;;;4993959;28;20495;-76
2023/03/06 08:32:17;;;;;;;10.60;9.27;;;6.80;99.90;;;;;;4982993;28;20191;-72
2023/03/06 08:34:44;;;;;;;12.40;9.10;;;6.60;99.90;;;;;;4991453;28;20201;-73
2023/03/06 08:37:10;;;;;;;10.13;8.20;;;6.50;99.90;;;;;;4993389;28;20204;-74
2023/03/06 08:39:35;;;;;;;12.57;8.70;;;6.50;99.90;;;;;;4976851;28;20427;-74
2023/03/06 08:42:01;;;;;;;10.23;8.13;;;6.50;99.90;;;;;;5004381;28;20674;-73
2023/03/06 08:44:27;;;;;;;9.37;7.00;;;6.60;99.90;;;;;;4992704;28;20235;-72
2023/03/06 08:46:52;;;;;;;11.27;8.87;;;6.80;99.90;;;;;;4992635;28;20212;-71
2023/03/06 08:49:18;;;;;;;12.47;7.60;;;6.60;99.90;;;;;;4996495;28;20186;-72
2023/03/06 08:51:43;;;;;;;10.47;7.47;;;6.50;99.90;;;;;;4987697;28;20278;-73
2023/03/06 08:54:12;;;;;;;8.93;7.80;;;6.60;99.90;;;;;;4998151;28;20181;-73
2023/03/06 08:56:38;;;;;;;12.80;7.77;;;6.70;99.90;;;;;;4975939;28;20799;-74
2023/03/06 08:59:05;;;;;;;9.80;7.73;;;6.50;99.90;;;;;;5002340;28;20416;-75
2023/03/06 09:01:33;;;;;;;8.30;6.60;;;6.90;99.90;;;;;;4986492;28;20444;-74
2023/03/06 09:04:01;;;;;;;10.80;7.97;;;7.00;99.90;;;;;;4986493;28;20445;-74
2023/03/06 09:06:30;;;;;;;9.90;8.07;;;7.20;99.90;;;;;;4976223;28;20454;-73
2023/03/06 09:08:56;;;;;;;9.67;7.03;;;7.20;99.90;;;;;;5002975;28;20407;-72
2023/03/06 09:11:23;;;;;;;13.10;8.80;;;7.20;99.90;;;;;;4992921;28;20799;-73
2023/03/06 09:13:49;;;;;;;10.33;7.10;;;7.40;99.90;;;;;;4984691;28;20190;-74
2023/03/06 09:16:15;;;;;;;10.50;7.20;;;7.70;99.90;;;;;;4988499;28;20453;-72
2023/03/06 09:18:41;;;;;;;10.07;7.50;;;7.80;99.90;;;;;;4994295;28;20558;-73
2023/03/06 09:21:07;;;;;;;10.03;7.70;;;7.60;99.90;;;;;;4984307;28;20206;-72
2023/03/06 09:23:33;;;;;;;8.93;8.00;;;7.30;99.90;;;;;;4991960;28;20239;-73
2023/03/06 09:26:00;;;;;;;9.03;6.87;;;7.10;99.90;;;;;;4993535;28;20472;-72
2023/03/06 09:28:25;;;;;;;8.83;7.33;;;7.20;99.90;;;;;;4995281;28;20462;-71
2023/03/06 09:30:51;;;;;;;9.73;7.27;;;6.80;99.90;;;;;;4993957;28;20412;-75
2023/03/06 09:33:18;;;;;;;12.40;8.13;;;6.70;99.90;;;;;;5000699;28;20181;-72
2023/03/06 09:35:55;;;;;;;7.83;6.97;;;6.60;99.90;;;;;;5003666;28;20437;-71
2023/03/06 09:38:23;;;;;;;10.13;7.50;;;6.60;99.90;;;;;;4984194;28;20452;-75
2023/03/06 09:41:00;;;;;;;9.43;7.53;;;6.90;99.90;;;;;;4984504;28;20433;-73
2023/03/06 09:43:36;;;;;;;8.70;6.83;;;6.80;99.90;;;;;;4984449;28;20412;-76
2023/03/06 09:46:20;;;;;;;8.97;6.40;;;6.70;99.90;;;;;;4970361;28;20434;-74
2023/03/06 09:48:51;;;;;;;8.97;6.70;;;6.70;99.90;;;;;;4993266;28;20408;-72
2023/03/06 09:51:23;;;;;;;9.40;7.93;;;6.70;99.90;;;;;;4996026;28;20417;-73
2023/03/06 09:54:02;;;;;;;9.13;7.30;;;6.50;99.90;;;;;;4993237;28;20408;-73
2023/03/06 09:56:32;;;;;;;9.47;7.47;;;6.60;99.90;;;;;;5000389;28;20438;-72
2023/03/06 09:59:22;;;;;;;9.60;7.00;;;6.70;99.90;;;;;;4984684;28;20792;-75
2023/03/06 10:02:01;;;;;;;13.43;8.50;;;6.80;99.90;;;;;;4992914;28;20423;-75
2023/03/06 10:04:49;;;;;;;8.67;7.57;;;6.90;99.90;;;;;;4979052;28;20443;-74
2023/03/06 10:07:22;;;;;;;11.23;7.70;;;7.00;99.90;;;;;;4976492;28;20456;-74
2023/03/06 10:09:57;;;;;;;8.97;6.80;;;7.10;99.90;;;;;;4980296;28;20641;-75
2023/03/06 10:12:47;;;;;;;8.67;6.60;;;7.10;99.90;;;;;;4977137;28;20913;-73
2023/03/06 10:15:15;;;;;;;8.83;7.33;;;7.30;99.90;;;;;;4984143;28;20527;-73
2023/03/06 10:17:41;;;;;;;7.40;6.23;;;7.40;99.90;;;;;;4991510;28;20630;-72
2023/03/06 10:20:26;;;;;;;8.43;7.20;;;7.60;99.90;;;;;;4994863;28;20465;-73
2023/03/06 10:23:19;;;;;;;11.53;7.50;;;7.50;99.90;;;;;;4991004;28;20415;-74
2023/03/06 10:26:01;;;;;;;7.97;6.93;;;7.20;99.90;;;;;;5000607;28;20455;-73
2023/03/06 10:28:40;;;;;;;8.80;6.97;;;7.10;99.90;;;;;;4992078;28;20971;-72
2023/03/06 10:31:26;;;;;;;8.47;7.00;;;7.10;99.90;;;;;;4999772;28;20414;-73
2023/03/06 10:34:12;;;;;;;11.77;7.13;;;7.10;99.90;;;;;;4976908;28;20421;-74
2023/03/06 10:36:38;;;;;;;9.03;7.73;;;7.10;99.90;;;;;;5002053;28;20436;-73
2023/03/06 10:39:12;;;;;;;9.30;7.40;;;7.00;99.90;;;;;;4998662;28;20445;-72
2023/03/06 10:41:38;;;;;;;7.93;7.13;;;7.00;99.90;;;;;;4987466;28;20282;-74
2023/03/06 10:44:03;;;;;;;10.00;7.57;;;6.80;99.90;;;;;;4997084;28;20509;-72
2023/03/06 10:46:51;;;;;;;9.17;7.23;;;6.80;99.90;;;;;;4989653;28;20287;-74
2023/03/06 10:49:35;;;;;;;10.27;7.83;;;7.00;99.90;;;;;;4982768;28;20188;-74
2023/03/06 10:52:18;;;;;;;7.50;6.50;;;7.20;99.90;;;;;;4969248;28;20472;-75
2023/03/06 10:54:44;;;;;;;8.20;6.90;;;7.30;99.90;;;;;;4988681;28;20413;-73
2023/03/06 10:57:16;;;;;;;9.37;6.80;;;7.30;99.90;;;;;;4980047;28;20465;-73
2023/03/06 10:59:56;;;;;;;8.10;7.27;;;7.40;99.90;;;;;;5006104;28;20301;-71
2023/03/06 11:02:31;;;;;;;9.67;6.67;;;7.50;99.90;;;;;;5003307;28;20497;-72
2023/03/06 11:04:59;;;;;;;8.10;6.90;;;7.40;99.90;;;;;;4988422;28;20417;-73
2023/03/06 11:07:30;;;;;;;7.40;6.50;;;7.40;99.90;;;;;;4988856;28;20516;-72
2023/03/06 11:09:56;;;;;;;9.00;7.00;;;7.40;99.90;;;;;;4977482;28;21020;-72
2023/03/06 11:12:26;;;;;;;8.93;7.37;;;7.20;99.90;;;;;;4988810;28;20425;-71
2023/03/06 11:15:13;;;;;;;7.70;6.77;;;7.10;99.90;;;;;;4993105;28;20186;-72
2023/03/06 11:17:59;;;;;;;8.50;6.53;;;7.30;99.90;;;;;;4986971;28;20411;-73
2023/03/06 11:20:46;;;;;;;8.70;7.00;;;7.60;99.90;;;;;;4986650;28;20408;-71
2023/03/06 11:23:35;;;;;;;9.63;7.00;;;7.60;99.90;;;;;;4985326;28;20798;-74
2023/03/06 11:26:12;;;;;;;8.50;6.87;;;7.50;99.90;;;;;;4977984;28;20480;-73
2023/03/06 11:29:11;;;;;;;8.93;7.80;;;7.90;99.90;;;;;;4993169;28;20829;-73
2023/03/06 11:31:46;;;;;;;8.13;6.97;;;7.70;99.90;;;;;;4988123;28;20793;-73
2023/03/06 11:34:24;;;;;;;8.50;7.40;;;7.90;99.90;;;;;;4992470;28;20494;-73
2023/03/06 11:37:32;;;;;;;8.67;7.00;;;8.00;99.90;;;;;;4994984;28;20437;-72
2023/03/06 11:40:10;;;;;;;10.87;7.37;;;7.60;99.90;;;;;;4979648;28;20426;-73
2023/03/06 11:42:44;;;;;;;11.37;7.60;;;7.60;99.90;;;;;;4999165;28;20457;-73
2023/03/06 11:45:36;;;;;;;8.97;7.50;;;7.40;99.90;;;;;;5002726;28;20413;-73
2023/03/06 11:48:07;;;;;;;8.40;7.27;;;7.60;99.90;;;;;;4985047;28;20448;-73
2023/03/06 11:51:03;;;;;;;10.77;8.40;;;7.60;99.90;;;;;;5004495;28;20409;-73
2023/03/06 11:53:34;;;;;;;9.00;6.90;;;7.80;99.90;;;;;;4974382;28;20430;-72
2023/03/06 11:56:58;;;;;;;10.07;7.00;;;8.30;99.90;;;;;;4995899;28;20458;-73
2023/03/06 12:00:12;;;;;;;11.00;8.30;;;8.10;99.90;;;;;;4927339;29;20443;-72
2023/03/06 12:03:01;;;;;;;11.03;8.00;;;8.40;99.60;;;;;;4944521;29;20432;-72
2023/03/06 12:05:32;;;;;;;11.10;7.90;;;8.40;99.50;;;;;;4985454;28;20848;-73
2023/03/06 12:08:23;;;;;;;11.43;7.80;;;8.40;99.70;;;;;;5001220;28;20451;-72
2023/03/06 12:10:53;;;;;;;8.60;6.90;;;8.40;99.20;;;;;;5003626;28;21184;-72
2023/03/06 12:13:23;;;;;;;10.27;7.33;;;8.50;99.30;;;;;;5004931;28;20414;-72
2023/03/06 12:16:15;;;;;;;9.47;7.23;;;8.60;99.00;;;;;;5002710;28;20458;-72
2023/03/06 12:18:47;;;;;;;10.90;8.63;;;9.00;98.70;;;;;;5002398;28;20406;-73
2023/03/06 12:21:36;;;;;;;10.33;8.00;;;9.40;98.20;;;;;;4993557;28;20399;-72
2023/03/06 12:24:38;;;;;;;7.83;7.07;;;9.60;97.00;;;;;;4991477;28;20403;-73
2023/03/06 12:27:40;;;;;;;9.20;7.37;;;9.60;97.10;;;;;;4998117;28;20980;-72
2023/03/06 12:30:18;;;;;;;10.73;7.70;;;9.40;96.90;;;;;;4994612;28;20498;-72
2023/03/06 12:32:50;;;;;;;9.40;8.27;;;8.80;97.30;;;;;;4978193;28;20415;-72
2023/03/06 12:35:24;;;;;;;9.57;7.17;;;8.70;97.60;;;;;;4990675;28;20980;-72
2023/03/06 12:38:19;;;;;;;10.47;7.67;;;8.50;97.30;;;;;;4986789;28;20933;-73
2023/03/06 12:41:04;;;;;;;8.20;7.30;;;8.50;97.60;;;;;;4990868;28;20414;-73
2023/03/06 12:44:00;;;;;;;10.03;7.73;;;8.20;97.80;;;;;;4987827;28;20643;-73
2023/03/06 12:46:27;;;;;;;8.27;7.33;;;8.30;98.00;;;;;;4995448;28;20827;-75
2023/03/06 12:49:21;;;;;;;8.43;7.17;;;8.20;97.60;;;;;;4999685;28;20533;-73
2023/03/06 12:51:47;;;;;;;8.83;7.93;;;8.40;98.20;;;;;;4996394;28;20434;-74
2023/03/06 12:54:13;;;;;;;9.70;8.10;;;8.40;97.90;;;;;;4981856;28;20420;-73
2023/03/06 12:56:41;;;;;;;8.60;7.70;;;8.40;98.20;;;;;;4975244;28;20502;-73